Flight Track Log - Related Links

Times and Time Zones

All times are in EDT time to prevent confusion due to time zone crossing. See the RPA3228 flight status page for this flight to view local times or setup timezone preferences in your user account.

Time Position Orientation Groundspeed Altitude Reporting Facility
EDT Latitude Longitude Course Direction KTS MPH feet Rate Location/Type
Thu 07:53:27 AM 36.1333 -86.6833 68° East 153 176 1,400  Level Nashville TRACON
Thu 07:53:57 AM 36.1333 -86.7167 270° West 166 191 2,300 1,400 Climbing Nashville TRACON
Thu 07:54:57 AM 36.1500 -86.7833 287° West 242 278 3,500 2,400 Climbing Nashville TRACON
Thu 07:55:57 AM 36.2000 -86.7667 15° North 259 298 7,100 3,158 Climbing Nashville TRACON
Thu 07:56:00 AM 36.1950 -86.1020 80° East  Level FlightAware Approximate
Thu 07:57:00 AM 36.2387 -85.9699 64° Northeast  Level FlightAware Approximate
Thu 07:57:10 AM 36.2014 -86.6611 89° East 285 328 10,500  Level Memphis Center
Thu 07:58:00 AM 36.2870 -85.8391 68° East  Level FlightAware Approximate
Thu 07:58:10 AM 36.2022 -86.5531 89° East 305 351 12,700  Level Memphis Center
Thu 07:59:10 AM 36.2008 -86.4400 91° East 317 365 15,200 2,300 Climbing Memphis Center
Thu 08:00:10 AM 36.2014 -86.3214 90° East 338 389 17,300 1,750 Climbing Memphis Center
Thu 08:01:10 AM 36.1997 -86.2083 91° East 349 402 18,700 1,600 Climbing Memphis Center
Thu 08:02:10 AM 36.2036 -86.0797 88° East 367 422 20,500 1,684 Climbing Memphis Center
Thu 08:04:01 AM 36.2919 -85.8633 63° Northeast 394 453 23,500 1,605 Climbing Indianapolis Center
Thu 08:05:02 AM 36.3503 -85.7375 60° Northeast 399 459 25,100 1,561 Climbing Indianapolis Center
Thu 08:06:04 AM 36.4086 -85.6142 60° Northeast 410 472 26,700 1,512 Climbing Indianapolis Center
Thu 08:07:05 AM 36.4692 -85.4872 59° Northeast 421 484 28,200 1,561 Climbing Indianapolis Center
Thu 08:08:07 AM 36.5294 -85.3583 60° Northeast 429 494 29,900 1,707 Climbing Indianapolis Center
Thu 08:09:08 AM 36.6050 -85.1994 59° Northeast 442 509 31,700 1,756 Climbing Indianapolis Center
Thu 08:10:10 AM 36.6528 -85.0539 68° East 451 519 33,500 1,610 Climbing Indianapolis Center
Thu 08:11:11 AM 36.6964 -84.9125 69° East 438 504 35,000 732 Climbing Indianapolis Center
Thu 08:12:13 AM 36.7361 -84.7792 70° East 411 473 35,000  Level Indianapolis Center
Thu 08:13:14 AM 36.7758 -84.6492 69° East 401 461 35,000  Level Indianapolis Center
Thu 08:14:16 AM 36.8161 -84.5167 69° East 406 467 35,000  Level Indianapolis Center
Thu 08:15:18 AM 36.8556 -84.3875 69° East 405 466 35,000  Level Indianapolis Center
Thu 08:16:19 AM 36.8944 -84.2558 70° East 403 464 35,000  Level Indianapolis Center
Thu 08:17:21 AM 36.9411 -84.1000 69° East 408 470 35,000  Level Indianapolis Center
Thu 08:18:23 AM 36.9817 -83.9669 69° East 409 471 35,000  Level Indianapolis Center
Thu 08:19:24 AM 37.0247 -83.8367 67° East 406 467 35,000  Level Indianapolis Center
Thu 08:20:26 AM 37.0847 -83.7172 58° Northeast 402 463 35,000  Level Indianapolis Center
Thu 08:21:27 AM 37.1389 -83.5958 61° Northeast 399 459 35,000  Level Indianapolis Center
Thu 08:22:29 AM 37.1933 -83.4758 60° Northeast 396 456 35,000  Level Indianapolis Center
Thu 08:23:31 AM 37.2472 -83.3531 61° Northeast 398 458 35,000  Level Indianapolis Center
Thu 08:24:32 AM 37.2994 -83.2331 61° Northeast 392 451 35,000  Level Indianapolis Center
Thu 08:25:34 AM 37.3619 -83.0906 61° Northeast 393 452 35,000  Level Indianapolis Center
Thu 08:26:35 AM 37.4144 -82.9664 62° Northeast 397 457 35,000  Level Indianapolis Center
Thu 08:27:37 AM 37.4436 -82.8258 75° East 418 481 35,000  Level Indianapolis Center
Thu 08:28:39 AM 37.4817 -82.6911 70° East 409 471 35,000  Level Indianapolis Center
Thu 08:29:40 AM 37.5189 -82.5578 71° East 404 465 35,000  Level Indianapolis Center
Thu 08:30:42 AM 37.5553 -82.4261 71° East 400 460 35,000  Level Indianapolis Center
Thu 08:31:44 AM 37.5931 -82.2933 70° East 399 459 35,000  Level Indianapolis Center
Thu 08:32:45 AM 37.6300 -82.1600 71° East 400 460 35,000  Level Indianapolis Center
Thu 08:33:47 AM 37.6667 -82.0236 71° East 406 467 35,000  Level Indianapolis Center
Thu 08:34:49 AM 37.7111 -81.8664 70° East 407 468 35,000  Level Indianapolis Center
Thu 08:35:50 AM 37.7467 -81.7325 71° East 403 464 35,000  Level Indianapolis Center
Thu 08:36:52 AM 37.7833 -81.5983 71° East 403 464 35,000  Level Indianapolis Center
Thu 08:37:54 AM 37.8183 -81.4692 71° East 402 463 35,000  Level Indianapolis Center
Thu 08:38:55 AM 37.8575 -81.3275 71° East 402 463 35,000  Level Indianapolis Center
Thu 08:39:57 AM 37.8919 -81.1961 72° East 396 456 35,000  Level Indianapolis Center
Thu 08:40:59 AM 37.9269 -81.0644 71° East 396 456 35,000  Level Indianapolis Center
Thu 08:42:00 AM 37.9622 -80.9311 71° East 399 459 35,000  Level Indianapolis Center
Thu 08:43:02 AM 37.9972 -80.7978 72° East 400 460 35,000  Level Indianapolis Center
Thu 08:44:04 AM 38.0375 -80.6378 72° East 399 459 35,000  Level Indianapolis Center
Thu 08:45:05 AM 38.0739 -80.5042 71° East 400 460 35,000  Level Indianapolis Center
Thu 08:46:10 AM 38.1139 -80.3636 70° East 396 456 35,000  Level Washington Center
Thu 08:47:11 AM 38.1483 -80.2283 72° East 396 456 35,000  Level Washington Center
Thu 08:48:12 AM 38.1847 -80.0958 71° East 396 456 35,000  Level Washington Center
Thu 08:49:24 AM 38.2189 -79.9606 72° East 396 456 35,000  Level Washington Center
Thu 08:50:22 AM 38.2575 -79.8119 72° East 396 456 35,000  Level Washington Center
Thu 08:51:23 AM 38.2956 -79.6792 70° East 396 456 35,000 -148 Level Washington Center
Thu 08:52:24 AM 38.3417 -79.5467 66° East 396 456 34,700 -1,289 Descending Washington Center
Thu 08:53:24 AM 38.3900 -79.4036 67° East 416 479 32,400 -2,529 Descending Washington Center
Thu 08:54:25 AM 38.4347 -79.2417 71° East 426 490 29,600 -2,593 Descending Washington Center
Thu 08:55:22 AM 38.4622 -79.0917 77° East 436 502 27,300 -1,333 Descending Washington Center
Thu 08:56:22 AM 38.4872 -78.9444 78° East 436 502 27,000 -885 Descending Washington Center
Thu 08:57:24 AM 38.5075 -78.8100 79° East 431 496 25,500 -1,820 Descending Washington Center
Thu 08:58:24 AM 38.5303 -78.6625 79° East 431 496 23,300 -1,780 Descending Washington Center
Thu 08:59:22 AM 38.5525 -78.5225 78° East 420 483 22,000 -1,169 Descending Washington Center
Thu 09:00:22 AM 38.5725 -78.3853 79° East 410 472 21,000 -1,388 Descending Washington Center
Thu 09:01:23 AM 38.5961 -78.2561 77° East 386 444 19,200 -1,736 Descending Washington Center
Thu 09:02:23 AM 38.6367 -78.1219 69° East 386 444 17,500 -1,750 Descending Washington Center
Thu 09:03:23 AM 38.6767 -77.9983 67° East 381 438 15,700 -1,785 Descending Washington Center
Thu 09:04:24 AM 38.7144 -77.8797 68° East 373 429 13,900 -1,636 Descending Washington Center
Thu 09:05:24 AM 38.7622 -77.7828 58° Northeast 341 392 12,400 -1,525 Descending Washington Center
Thu 09:06:22 AM 38.8222 -77.6914 50° Northeast 309 356 10,900 -1,380 Descending Washington Center
Thu 09:07:04 AM 38.8500 -77.6167 64° Northeast 312 359 10,100 -1,250 Descending Potomac TRACON
Thu 09:07:58 AM 38.8833 -77.5333 63° Northeast 313 360 8,900 -1,316 Descending Potomac TRACON
Thu 09:08:58 AM 38.9000 -77.4167 80° East 308 354 7,600 -1,300 Descending Potomac TRACON
Thu 09:09:58 AM 38.8667 -77.3333 117° Southeast 288 331 6,300 -800 Descending Potomac TRACON
Thu 09:10:58 AM 38.8333 -77.2500 117° Southeast 240 276 6,000 -158 Descending Potomac TRACON
Thu 09:11:52 AM 38.8000 -77.1833 123° Southeast 236 272 6,000 -368 Level Potomac TRACON
Thu 09:12:52 AM 38.7667 -77.1167 123° Southeast 234 269 5,300 -476 Descending Potomac TRACON
Thu 09:13:58 AM 38.7000 -77.1167 180° South 218 251 5,000 -143 Descending Potomac TRACON
Thu 09:14:58 AM 38.6333 -77.1000 169° South 199 229 5,000  Level Potomac TRACON
Thu 09:15:53 AM 38.5833 -77.1000 180° South 192 221 5,000  Level Potomac TRACON
Thu 09:16:53 AM 38.5333 -77.1000 180° South 191 220 5,000 -50 Level Potomac TRACON
Thu 09:17:53 AM 38.4833 -77.1000 180° South 190 219 4,900 -526 Descending Potomac TRACON
Thu 09:18:47 AM 38.4833 -77.0500 90° East 203 234 4,000 -474 Descending Potomac TRACON
Thu 09:19:47 AM 38.5167 -77.0167 38° Northeast 179 206 4,000  Level Potomac TRACON
Thu 09:20:47 AM 38.5667 -77.0167 360° North 173 199 4,000  Level Potomac TRACON
Thu 09:21:47 AM 38.6167 -77.0167 360° North 173 199 4,000 -350 Level Potomac TRACON
Thu 09:22:47 AM 38.6667 -77.0167 360° North 170 196 3,300 -750 Descending Potomac TRACON
Thu 09:23:47 AM 38.7167 -77.0167 360° North 160 184 2,500 -800 Descending Potomac TRACON
Thu 09:24:47 AM 38.7500 -77.0333 339° North 160 184 1,700 -737 Descending Potomac TRACON
Thu 09:25:41 AM 38.8000 -77.0333 360° North 136 157 1,100 -550 Descending Potomac TRACON
Thu 09:26:47 AM 38.8333 -77.0167 21° North 112 129 600 -455 Descending Potomac TRACON

Login

Don't have an account? Register now (free) for customized features, flight alerts, and more!